sensor_id;sensor_type;location;lat;lon;timestamp;P1;durP1;ratioP1;P2;durP2;ratioP2
56653;SDS011;45096;52.302;4.634;2023-12-07T00:00:38;8.23;;;6.80;;
56653;SDS011;45096;52.302;4.634;2023-12-07T00:03:04;9.05;;;7.68;;
56653;SDS011;45096;52.302;4.634;2023-12-07T00:05:29;10.83;;;7.77;;
56653;SDS011;45096;52.302;4.634;2023-12-07T00:07:55;9.07;;;7.33;;
56653;SDS011;45096;52.302;4.634;2023-12-07T00:10:20;12.47;;;7.73;;
56653;SDS011;45096;52.302;4.634;2023-12-07T00:12:47;9.03;;;7.50;;
56653;SDS011;45096;52.302;4.634;2023-12-07T00:15:12;9.07;;;7.47;;
56653;SDS011;45096;52.302;4.634;2023-12-07T00:17:38;11.40;;;7.60;;
56653;SDS011;45096;52.302;4.634;2023-12-07T00:20:03;11.43;;;8.00;;
56653;SDS011;45096;52.302;4.634;2023-12-07T00:22:29;10.80;;;7.27;;
56653;SDS011;45096;52.302;4.634;2023-12-07T00:24:55;10.43;;;8.20;;
56653;SDS011;45096;52.302;4.634;2023-12-07T00:27:20;8.60;;;7.40;;
56653;SDS011;45096;52.302;4.634;2023-12-07T00:29:47;9.23;;;7.97;;
56653;SDS011;45096;52.302;4.634;2023-12-07T00:32:12;9.73;;;7.70;;
56653;SDS011;45096;52.302;4.634;2023-12-07T00:34:38;12.63;;;8.10;;
56653;SDS011;45096;52.302;4.634;2023-12-07T00:37:03;12.20;;;7.43;;
56653;SDS011;45096;52.302;4.634;2023-12-07T00:39:29;12.30;;;8.67;;
56653;SDS011;45096;52.302;4.634;2023-12-07T00:41:54;11.87;;;7.37;;
56653;SDS011;45096;52.302;4.634;2023-12-07T00:44:19;11.20;;;7.17;;
56653;SDS011;45096;52.302;4.634;2023-12-07T00:46:46;10.07;;;7.73;;
56653;SDS011;45096;52.302;4.634;2023-12-07T00:49:12;9.23;;;7.07;;
56653;SDS011;45096;52.302;4.634;2023-12-07T00:51:37;9.47;;;7.40;;
56653;SDS011;45096;52.302;4.634;2023-12-07T00:54:03;9.40;;;7.05;;
56653;SDS011;45096;52.302;4.634;2023-12-07T00:56:28;8.53;;;6.73;;
56653;SDS011;45096;52.302;4.634;2023-12-07T00:58:53;8.83;;;7.27;;
56653;SDS011;45096;52.302;4.634;2023-12-07T01:01:19;10.27;;;8.13;;
56653;SDS011;45096;52.302;4.634;2023-12-07T01:03:45;10.27;;;7.60;;
56653;SDS011;45096;52.302;4.634;2023-12-07T01:06:11;10.77;;;7.87;;
56653;SDS011;45096;52.302;4.634;2023-12-07T01:08:36;9.40;;;7.40;;
56653;SDS011;45096;52.302;4.634;2023-12-07T01:11:02;10.77;;;7.33;;
56653;SDS011;45096;52.302;4.634;2023-12-07T01:13:27;9.73;;;7.90;;
56653;SDS011;45096;52.302;4.634;2023-12-07T01:15:53;9.93;;;7.80;;
56653;SDS011;45096;52.302;4.634;2023-12-07T01:18:18;9.77;;;7.43;;
56653;SDS011;45096;52.302;4.634;2023-12-07T01:20:45;8.57;;;6.43;;
56653;SDS011;45096;52.302;4.634;2023-12-07T01:23:10;11.47;;;7.83;;
56653;SDS011;45096;52.302;4.634;2023-12-07T01:25:36;9.57;;;7.40;;
56653;SDS011;45096;52.302;4.634;2023-12-07T01:28:01;10.90;;;7.03;;
56653;SDS011;45096;52.302;4.634;2023-12-07T01:30:27;9.23;;;7.53;;
56653;SDS011;45096;52.302;4.634;2023-12-07T01:32:52;9.83;;;7.83;;
56653;SDS011;45096;52.302;4.634;2023-12-07T01:35:17;8.67;;;7.17;;
56653;SDS011;45096;52.302;4.634;2023-12-07T01:37:44;7.93;;;6.50;;
56653;SDS011;45096;52.302;4.634;2023-12-07T01:40:10;9.60;;;7.90;;
56653;SDS011;45096;52.302;4.634;2023-12-07T01:42:36;10.00;;;7.67;;
56653;SDS011;45096;52.302;4.634;2023-12-07T01:45:01;8.20;;;7.40;;
56653;SDS011;45096;52.302;4.634;2023-12-07T01:47:27;9.10;;;7.10;;
56653;SDS011;45096;52.302;4.634;2023-12-07T01:49:52;9.52;;;7.90;;
56653;SDS011;45096;52.302;4.634;2023-12-07T01:52:18;7.50;;;6.73;;
56653;SDS011;45096;52.302;4.634;2023-12-07T01:54:46;9.10;;;7.17;;
56653;SDS011;45096;52.302;4.634;2023-12-07T01:57:12;8.93;;;6.63;;
56653;SDS011;45096;52.302;4.634;2023-12-07T01:59:37;8.13;;;7.30;;
56653;SDS011;45096;52.302;4.634;2023-12-07T02:02:03;9.17;;;6.40;;
56653;SDS011;45096;52.302;4.634;2023-12-07T02:04:28;8.73;;;6.73;;
56653;SDS011;45096;52.302;4.634;2023-12-07T02:06:54;10.47;;;7.57;;
56653;SDS011;45096;52.302;4.634;2023-12-07T02:09:22;9.63;;;7.67;;
56653;SDS011;45096;52.302;4.634;2023-12-07T02:11:49;10.27;;;6.73;;
56653;SDS011;45096;52.302;4.634;2023-12-07T02:14:14;7.50;;;6.47;;
56653;SDS011;45096;52.302;4.634;2023-12-07T02:16:41;7.23;;;6.00;;
56653;SDS011;45096;52.302;4.634;2023-12-07T02:19:15;9.73;;;6.40;;
56653;SDS011;45096;52.302;4.634;2023-12-07T02:21:50;9.23;;;6.60;;
56653;SDS011;45096;52.302;4.634;2023-12-07T02:24:19;8.80;;;6.53;;
56653;SDS011;45096;52.302;4.634;2023-12-07T02:26:47;7.57;;;6.20;;
56653;SDS011;45096;52.302;4.634;2023-12-07T02:29:13;5.47;;;5.03;;
56653;SDS011;45096;52.302;4.634;2023-12-07T02:31:38;6.00;;;5.37;;
56653;SDS011;45096;52.302;4.634;2023-12-07T02:34:04;7.23;;;5.60;;
56653;SDS011;45096;52.302;4.634;2023-12-07T02:36:29;7.23;;;5.63;;
56653;SDS011;45096;52.302;4.634;2023-12-07T02:38:56;5.83;;;5.23;;
56653;SDS011;45096;52.302;4.634;2023-12-07T02:41:22;8.13;;;6.60;;
56653;SDS011;45096;52.302;4.634;2023-12-07T02:43:49;7.83;;;6.00;;
56653;SDS011;45096;52.302;4.634;2023-12-07T02:46:14;7.53;;;5.73;;
56653;SDS011;45096;52.302;4.634;2023-12-07T02:48:40;7.97;;;5.57;;
56653;SDS011;45096;52.302;4.634;2023-12-07T02:51:05;8.03;;;5.60;;
56653;SDS011;45096;52.302;4.634;2023-12-07T02:53:31;6.87;;;5.67;;
56653;SDS011;45096;52.302;4.634;2023-12-07T02:55:56;6.00;;;5.40;;
56653;SDS011;45096;52.302;4.634;2023-12-07T02:58:22;5.43;;;4.87;;
56653;SDS011;45096;52.302;4.634;2023-12-07T03:00:49;6.47;;;5.23;;
56653;SDS011;45096;52.302;4.634;2023-12-07T03:03:14;5.67;;;5.07;;
56653;SDS011;45096;52.302;4.634;2023-12-07T03:05:40;5.83;;;5.10;;
56653;SDS011;45096;52.302;4.634;2023-12-07T03:08:05;5.47;;;4.97;;
56653;SDS011;45096;52.302;4.634;2023-12-07T03:10:30;5.63;;;5.03;;
56653;SDS011;45096;52.302;4.634;2023-12-07T03:12:56;6.37;;;5.40;;
56653;SDS011;45096;52.302;4.634;2023-12-07T03:15:21;5.90;;;5.30;;
56653;SDS011;45096;52.302;4.634;2023-12-07T03:17:48;5.30;;;4.90;;
56653;SDS011;45096;52.302;4.634;2023-12-07T03:20:14;5.23;;;4.63;;
56653;SDS011;45096;52.302;4.634;2023-12-07T03:22:39;5.67;;;5.07;;
56653;SDS011;45096;52.302;4.634;2023-12-07T03:25:05;6.27;;;5.43;;
56653;SDS011;45096;52.302;4.634;2023-12-07T03:27:30;5.63;;;4.50;;
56653;SDS011;45096;52.302;4.634;2023-12-07T03:29:56;5.20;;;4.70;;
56653;SDS011;45096;52.302;4.634;2023-12-07T03:32:21;4.97;;;4.57;;
56653;SDS011;45096;52.302;4.634;2023-12-07T03:34:48;5.77;;;5.17;;
56653;SDS011;45096;52.302;4.634;2023-12-07T03:37:13;6.53;;;5.07;;
56653;SDS011;45096;52.302;4.634;2023-12-07T03:39:39;5.90;;;5.00;;
56653;SDS011;45096;52.302;4.634;2023-12-07T03:42:04;5.03;;;4.53;;
56653;SDS011;45096;52.302;4.634;2023-12-07T03:44:30;6.47;;;5.17;;
56653;SDS011;45096;52.302;4.634;2023-12-07T03:46:55;5.60;;;5.03;;
56653;SDS011;45096;52.302;4.634;2023-12-07T03:49:21;6.87;;;5.70;;
56653;SDS011;45096;52.302;4.634;2023-12-07T03:51:48;6.47;;;4.73;;
56653;SDS011;45096;52.302;4.634;2023-12-07T03:54:13;5.20;;;4.70;;
56653;SDS011;45096;52.302;4.634;2023-12-07T03:56:38;5.47;;;4.97;;
56653;SDS011;45096;52.302;4.634;2023-12-07T03:59:04;6.57;;;4.97;;
56653;SDS011;45096;52.302;4.634;2023-12-07T04:01:29;5.80;;;5.20;;
56653;SDS011;45096;52.302;4.634;2023-12-07T04:03:55;5.80;;;5.17;;
56653;SDS011;45096;52.302;4.634;2023-12-07T04:06:21;6.57;;;4.63;;
56653;SDS011;45096;52.302;4.634;2023-12-07T04:08:48;5.50;;;4.93;;
56653;SDS011;45096;52.302;4.634;2023-12-07T04:11:13;5.10;;;4.67;;
56653;SDS011;45096;52.302;4.634;2023-12-07T04:13:39;5.90;;;5.20;;
56653;SDS011;45096;52.302;4.634;2023-12-07T04:16:05;6.20;;;5.60;;
56653;SDS011;45096;52.302;4.634;2023-12-07T04:18:31;7.00;;;4.90;;
56653;SDS011;45096;52.302;4.634;2023-12-07T04:20:56;5.87;;;4.83;;
56653;SDS011;45096;52.302;4.634;2023-12-07T04:23:22;6.10;;;5.03;;
56653;SDS011;45096;52.302;4.634;2023-12-07T04:25:48;5.70;;;4.90;;
56653;SDS011;45096;52.302;4.634;2023-12-07T04:28:14;6.17;;;4.83;;
56653;SDS011;45096;52.302;4.634;2023-12-07T04:30:39;6.30;;;5.70;;
56653;SDS011;45096;52.302;4.634;2023-12-07T04:33:05;7.43;;;5.60;;
56653;SDS011;45096;52.302;4.634;2023-12-07T04:35:30;5.77;;;5.23;;
56653;SDS011;45096;52.302;4.634;2023-12-07T04:37:56;5.33;;;4.80;;
56653;SDS011;45096;52.302;4.634;2023-12-07T04:40:21;5.47;;;4.93;;
56653;SDS011;45096;52.302;4.634;2023-12-07T04:42:48;5.40;;;4.90;;
56653;SDS011;45096;52.302;4.634;2023-12-07T04:45:13;5.17;;;4.67;;
56653;SDS011;45096;52.302;4.634;2023-12-07T04:47:39;8.10;;;5.70;;
56653;SDS011;45096;52.302;4.634;2023-12-07T04:50:04;6.87;;;5.13;;
56653;SDS011;45096;52.302;4.634;2023-12-07T04:52:30;6.13;;;5.00;;
56653;SDS011;45096;52.302;4.634;2023-12-07T04:54:56;6.60;;;5.53;;
56653;SDS011;45096;52.302;4.634;2023-12-07T04:57:21;5.20;;;4.57;;
56653;SDS011;45096;52.302;4.634;2023-12-07T04:59:48;7.17;;;6.03;;
56653;SDS011;45096;52.302;4.634;2023-12-07T05:02:13;5.53;;;5.03;;
56653;SDS011;45096;52.302;4.634;2023-12-07T05:04:39;5.90;;;5.30;;
56653;SDS011;45096;52.302;4.634;2023-12-07T05:07:04;6.40;;;5.73;;
56653;SDS011;45096;52.302;4.634;2023-12-07T05:09:30;6.47;;;4.93;;
56653;SDS011;45096;52.302;4.634;2023-12-07T05:11:55;7.33;;;5.63;;
56653;SDS011;45096;52.302;4.634;2023-12-07T05:14:20;7.33;;;5.40;;
56653;SDS011;45096;52.302;4.634;2023-12-07T05:16:47;6.40;;;5.47;;
56653;SDS011;45096;52.302;4.634;2023-12-07T05:19:13;7.60;;;5.40;;
56653;SDS011;45096;52.302;4.634;2023-12-07T05:21:38;8.70;;;6.40;;
56653;SDS011;45096;52.302;4.634;2023-12-07T05:24:04;6.03;;;5.43;;
56653;SDS011;45096;52.302;4.634;2023-12-07T05:26:29;6.17;;;5.50;;
56653;SDS011;45096;52.302;4.634;2023-12-07T05:28:55;5.67;;;5.10;;
56653;SDS011;45096;52.302;4.634;2023-12-07T05:31:20;5.77;;;5.17;;
56653;SDS011;45096;52.302;4.634;2023-12-07T05:33:47;5.57;;;4.83;;
56653;SDS011;45096;52.302;4.634;2023-12-07T05:36:12;5.83;;;5.30;;
56653;SDS011;45096;52.302;4.634;2023-12-07T05:38:38;6.57;;;4.93;;
56653;SDS011;45096;52.302;4.634;2023-12-07T05:41:03;6.93;;;5.40;;
56653;SDS011;45096;52.302;4.634;2023-12-07T05:43:28;5.87;;;5.27;;
56653;SDS011;45096;52.302;4.634;2023-12-07T05:45:54;7.83;;;5.70;;
56653;SDS011;45096;52.302;4.634;2023-12-07T05:48:19;6.93;;;5.73;;
56653;SDS011;45096;52.302;4.634;2023-12-07T05:50:46;5.83;;;5.13;;
56653;SDS011;45096;52.302;4.634;2023-12-07T05:53:11;6.70;;;4.97;;
56653;SDS011;45096;52.302;4.634;2023-12-07T05:55:38;5.90;;;4.67;;
56653;SDS011;45096;52.302;4.634;2023-12-07T05:58:04;5.73;;;5.23;;
56653;SDS011;45096;52.302;4.634;2023-12-07T06:00:29;7.73;;;5.67;;
56653;SDS011;45096;52.302;4.634;2023-12-07T06:02:54;6.47;;;5.70;;
56653;SDS011;45096;52.302;4.634;2023-12-07T06:05:20;9.67;;;5.90;;
56653;SDS011;45096;52.302;4.634;2023-12-07T06:07:46;7.47;;;5.47;;
56653;SDS011;45096;52.302;4.634;2023-12-07T06:10:12;5.87;;;5.10;;
56653;SDS011;45096;52.302;4.634;2023-12-07T06:12:37;6.63;;;6.03;;
56653;SDS011;45096;52.302;4.634;2023-12-07T06:15:03;7.10;;;5.77;;
56653;SDS011;45096;52.302;4.634;2023-12-07T06:17:29;6.20;;;5.60;;
56653;SDS011;45096;52.302;4.634;2023-12-07T06:19:55;6.73;;;6.00;;
56653;SDS011;45096;52.302;4.634;2023-12-07T06:22:20;8.63;;;5.60;;
56653;SDS011;45096;52.302;4.634;2023-12-07T06:24:47;5.33;;;4.83;;
56653;SDS011;45096;52.302;4.634;2023-12-07T06:27:12;8.17;;;6.03;;
56653;SDS011;45096;52.302;4.634;2023-12-07T06:29:38;7.77;;;5.20;;
56653;SDS011;45096;52.302;4.634;2023-12-07T06:32:03;7.57;;;5.93;;
56653;SDS011;45096;52.302;4.634;2023-12-07T06:34:29;9.03;;;6.17;;
56653;SDS011;45096;52.302;4.634;2023-12-07T06:36:54;9.13;;;6.17;;
56653;SDS011;45096;52.302;4.634;2023-12-07T06:39:20;7.90;;;6.00;;
56653;SDS011;45096;52.302;4.634;2023-12-07T06:41:47;7.37;;;5.97;;
56653;SDS011;45096;52.302;4.634;2023-12-07T06:44:12;8.07;;;6.57;;
56653;SDS011;45096;52.302;4.634;2023-12-07T06:46:38;7.10;;;6.40;;
56653;SDS011;45096;52.302;4.634;2023-12-07T06:49:03;6.70;;;5.90;;
56653;SDS011;45096;52.302;4.634;2023-12-07T06:51:29;7.67;;;6.50;;
56653;SDS011;45096;52.302;4.634;2023-12-07T06:53:54;10.00;;;6.87;;
56653;SDS011;45096;52.302;4.634;2023-12-07T06:56:19;12.20;;;7.97;;
56653;SDS011;45096;52.302;4.634;2023-12-07T06:58:46;10.30;;;8.80;;
56653;SDS011;45096;52.302;4.634;2023-12-07T07:01:13;10.53;;;9.23;;
56653;SDS011;45096;52.302;4.634;2023-12-07T07:03:38;12.30;;;9.00;;
56653;SDS011;45096;52.302;4.634;2023-12-07T07:06:04;13.20;;;9.43;;
56653;SDS011;45096;52.302;4.634;2023-12-07T07:08:29;12.00;;;8.67;;
56653;SDS011;45096;52.302;4.634;2023-12-07T07:10:55;15.03;;;9.63;;
56653;SDS011;45096;52.302;4.634;2023-12-07T07:13:20;12.27;;;8.97;;
56653;SDS011;45096;52.302;4.634;2023-12-07T07:15:47;12.93;;;9.50;;
56653;SDS011;45096;52.302;4.634;2023-12-07T07:18:13;13.40;;;9.93;;
56653;SDS011;45096;52.302;4.634;2023-12-07T07:20:38;17.17;;;11.20;;
56653;SDS011;45096;52.302;4.634;2023-12-07T07:23:04;16.30;;;9.93;;
56653;SDS011;45096;52.302;4.634;2023-12-07T07:25:29;13.87;;;9.43;;
56653;SDS011;45096;52.302;4.634;2023-12-07T07:27:55;11.07;;;8.90;;
56653;SDS011;45096;52.302;4.634;2023-12-07T07:30:20;14.93;;;10.27;;
56653;SDS011;45096;52.302;4.634;2023-12-07T07:32:47;12.80;;;9.50;;
56653;SDS011;45096;52.302;4.634;2023-12-07T07:35:12;14.93;;;9.73;;
56653;SDS011;45096;52.302;4.634;2023-12-07T07:37:38;13.27;;;9.80;;
56653;SDS011;45096;52.302;4.634;2023-12-07T07:40:03;12.47;;;9.43;;
56653;SDS011;45096;52.302;4.634;2023-12-07T07:42:29;12.87;;;8.83;;
56653;SDS011;45096;52.302;4.634;2023-12-07T07:44:55;12.03;;;9.13;;
56653;SDS011;45096;52.302;4.634;2023-12-07T07:47:20;12.53;;;9.43;;
56653;SDS011;45096;52.302;4.634;2023-12-07T07:49:47;12.97;;;9.07;;
56653;SDS011;45096;52.302;4.634;2023-12-07T07:52:12;11.73;;;9.27;;
56653;SDS011;45096;52.302;4.634;2023-12-07T07:54:38;12.73;;;9.10;;
56653;SDS011;45096;52.302;4.634;2023-12-07T07:57:03;11.97;;;8.40;;
56653;SDS011;45096;52.302;4.634;2023-12-07T07:59:29;11.87;;;9.37;;
56653;SDS011;45096;52.302;4.634;2023-12-07T08:01:54;12.87;;;9.13;;
56653;SDS011;45096;52.302;4.634;2023-12-07T08:04:20;11.13;;;8.43;;
56653;SDS011;45096;52.302;4.634;2023-12-07T08:06:46;14.53;;;9.60;;
56653;SDS011;45096;52.302;4.634;2023-12-07T08:09:12;12.07;;;9.27;;
56653;SDS011;45096;52.302;4.634;2023-12-07T08:11:37;12.83;;;9.07;;
56653;SDS011;45096;52.302;4.634;2023-12-07T08:14:02;12.83;;;9.23;;
56653;SDS011;45096;52.302;4.634;2023-12-07T08:16:28;13.03;;;9.10;;
56653;SDS011;45096;52.302;4.634;2023-12-07T08:18:53;9.57;;;8.43;;
56653;SDS011;45096;52.302;4.634;2023-12-07T08:21:19;12.73;;;8.10;;
56653;SDS011;45096;52.302;4.634;2023-12-07T08:23:47;12.63;;;8.30;;
56653;SDS011;45096;52.302;4.634;2023-12-07T08:26:12;11.63;;;8.33;;
56653;SDS011;45096;52.302;4.634;2023-12-07T08:28:37;10.53;;;8.53;;
56653;SDS011;45096;52.302;4.634;2023-12-07T08:31:03;11.10;;;8.47;;
56653;SDS011;45096;52.302;4.634;2023-12-07T08:33:28;13.27;;;8.50;;
56653;SDS011;45096;52.302;4.634;2023-12-07T08:35:54;11.73;;;8.93;;
56653;SDS011;45096;52.302;4.634;2023-12-07T08:38:19;12.73;;;8.73;;
56653;SDS011;45096;52.302;4.634;2023-12-07T08:40:46;13.03;;;8.67;;
56653;SDS011;45096;52.302;4.634;2023-12-07T08:43:11;10.97;;;8.47;;
56653;SDS011;45096;52.302;4.634;2023-12-07T08:45:37;11.03;;;8.27;;
56653;SDS011;45096;52.302;4.634;2023-12-07T08:48:02;10.93;;;7.50;;
56653;SDS011;45096;52.302;4.634;2023-12-07T08:50:28;10.27;;;8.30;;
56653;SDS011;45096;52.302;4.634;2023-12-07T08:52:54;10.10;;;8.20;;
56653;SDS011;45096;52.302;4.634;2023-12-07T08:55:19;12.23;;;7.93;;
56653;SDS011;45096;52.302;4.634;2023-12-07T08:57:46;11.97;;;8.80;;
56653;SDS011;45096;52.302;4.634;2023-12-07T09:00:11;9.50;;;7.03;;
56653;SDS011;45096;52.302;4.634;2023-12-07T09:02:37;9.13;;;6.93;;
56653;SDS011;45096;52.302;4.634;2023-12-07T09:05:03;9.23;;;7.30;;
56653;SDS011;45096;52.302;4.634;2023-12-07T09:07:29;9.77;;;6.87;;
56653;SDS011;45096;52.302;4.634;2023-12-07T09:09:54;9.77;;;7.60;;
56653;SDS011;45096;52.302;4.634;2023-12-07T09:12:20;11.27;;;7.73;;
56653;SDS011;45096;52.302;4.634;2023-12-07T09:14:46;8.70;;;7.43;;
56653;SDS011;45096;52.302;4.634;2023-12-07T09:17:12;11.87;;;7.53;;
56653;SDS011;45096;52.302;4.634;2023-12-07T09:19:37;11.00;;;7.67;;
56653;SDS011;45096;52.302;4.634;2023-12-07T09:22:03;10.77;;;7.57;;
56653;SDS011;45096;52.302;4.634;2023-12-07T09:24:28;10.77;;;7.57;;
56653;SDS011;45096;52.302;4.634;2023-12-07T09:26:54;9.40;;;7.20;;
56653;SDS011;45096;52.302;4.634;2023-12-07T09:29:19;10.90;;;7.73;;
56653;SDS011;45096;52.302;4.634;2023-12-07T09:31:46;11.20;;;7.50;;
56653;SDS011;45096;52.302;4.634;2023-12-07T09:34:11;10.63;;;7.40;;
56653;SDS011;45096;52.302;4.634;2023-12-07T09:36:37;10.90;;;8.00;;
56653;SDS011;45096;52.302;4.634;2023-12-07T09:39:02;10.07;;;6.83;;
56653;SDS011;45096;52.302;4.634;2023-12-07T09:41:27;9.27;;;7.03;;
56653;SDS011;45096;52.302;4.634;2023-12-07T09:43:53;11.23;;;6.90;;
56653;SDS011;45096;52.302;4.634;2023-12-07T09:46:19;8.07;;;6.47;;
56653;SDS011;45096;52.302;4.634;2023-12-07T09:48:46;9.97;;;6.70;;
56653;SDS011;45096;52.302;4.634;2023-12-07T09:51:14;10.27;;;7.27;;
56653;SDS011;45096;52.302;4.634;2023-12-07T09:53:40;11.93;;;7.33;;
56653;SDS011;45096;52.302;4.634;2023-12-07T09:56:07;8.87;;;6.97;;
56653;SDS011;45096;52.302;4.634;2023-12-07T09:58:33;10.33;;;6.87;;
56653;SDS011;45096;52.302;4.634;2023-12-07T10:00:58;10.07;;;7.03;;
56653;SDS011;45096;52.302;4.634;2023-12-07T10:03:24;11.23;;;7.27;;
56653;SDS011;45096;52.302;4.634;2023-12-07T10:05:57;9.17;;;6.60;;
56653;SDS011;45096;52.302;4.634;2023-12-07T10:08:26;8.13;;;7.03;;
56653;SDS011;45096;52.302;4.634;2023-12-07T10:11:01;9.20;;;7.27;;
56653;SDS011;45096;52.302;4.634;2023-12-07T10:13:28;11.30;;;7.30;;
56653;SDS011;45096;52.302;4.634;2023-12-07T10:16:04;9.53;;;7.07;;
56653;SDS011;45096;52.302;4.634;2023-12-07T10:18:30;9.40;;;7.03;;
56653;SDS011;45096;52.302;4.634;2023-12-07T10:20:57;9.17;;;6.03;;
56653;SDS011;45096;52.302;4.634;2023-12-07T10:23:23;10.13;;;7.47;;
56653;SDS011;45096;52.302;4.634;2023-12-07T10:25:48;11.03;;;7.77;;
56653;SDS011;45096;52.302;4.634;2023-12-07T10:28:14;11.30;;;6.87;;
56653;SDS011;45096;52.302;4.634;2023-12-07T10:30:41;11.53;;;7.33;;
56653;SDS011;45096;52.302;4.634;2023-12-07T10:33:07;11.43;;;6.73;;
56653;SDS011;45096;52.302;4.634;2023-12-07T10:35:32;12.00;;;7.10;;
56653;SDS011;45096;52.302;4.634;2023-12-07T10:37:59;13.13;;;8.00;;
56653;SDS011;45096;52.302;4.634;2023-12-07T10:40:25;13.00;;;8.43;;
56653;SDS011;45096;52.302;4.634;2023-12-07T10:42:52;10.87;;;7.23;;
56653;SDS011;45096;52.302;4.634;2023-12-07T10:45:21;11.43;;;7.47;;
56653;SDS011;45096;52.302;4.634;2023-12-07T10:47:47;12.03;;;7.73;;
56653;SDS011;45096;52.302;4.634;2023-12-07T10:50:13;12.40;;;7.33;;
56653;SDS011;45096;52.302;4.634;2023-12-07T10:52:40;11.40;;;7.40;;
56653;SDS011;45096;52.302;4.634;2023-12-07T10:55:12;12.37;;;7.67;;
56653;SDS011;45096;52.302;4.634;2023-12-07T10:57:40;13.77;;;8.07;;
56653;SDS011;45096;52.302;4.634;2023-12-07T11:00:06;12.23;;;8.23;;
56653;SDS011;45096;52.302;4.634;2023-12-07T11:02:32;11.60;;;7.57;;
56653;SDS011;45096;52.302;4.634;2023-12-07T11:04:59;11.27;;;7.57;;
56653;SDS011;45096;52.302;4.634;2023-12-07T11:07:25;14.30;;;8.57;;
56653;SDS011;45096;52.302;4.634;2023-12-07T11:09:57;12.30;;;7.40;;
56653;SDS011;45096;52.302;4.634;2023-12-07T11:12:29;12.10;;;7.67;;
56653;SDS011;45096;52.302;4.634;2023-12-07T11:14:58;12.00;;;7.40;;
56653;SDS011;45096;52.302;4.634;2023-12-07T11:17:24;13.33;;;8.30;;
56653;SDS011;45096;52.302;4.634;2023-12-07T11:19:49;11.87;;;7.77;;
56653;SDS011;45096;52.302;4.634;2023-12-07T11:22:15;14.93;;;8.80;;
56653;SDS011;45096;52.302;4.634;2023-12-07T11:24:53;13.57;;;7.90;;
56653;SDS011;45096;52.302;4.634;2023-12-07T11:27:19;12.43;;;7.80;;
56653;SDS011;45096;52.302;4.634;2023-12-07T11:29:47;13.47;;;8.20;;
56653;SDS011;45096;52.302;4.634;2023-12-07T11:32:12;13.53;;;8.27;;
56653;SDS011;45096;52.302;4.634;2023-12-07T11:34:38;14.37;;;8.10;;
56653;SDS011;45096;52.302;4.634;2023-12-07T11:37:04;14.97;;;8.83;;
56653;SDS011;45096;52.302;4.634;2023-12-07T11:39:34;14.97;;;9.17;;
56653;SDS011;45096;52.302;4.634;2023-12-07T11:42:02;12.50;;;8.10;;
56653;SDS011;45096;52.302;4.634;2023-12-07T11:44:32;16.23;;;8.53;;
56653;SDS011;45096;52.302;4.634;2023-12-07T11:46:59;13.73;;;8.43;;
56653;SDS011;45096;52.302;4.634;2023-12-07T11:49:25;14.57;;;8.23;;
56653;SDS011;45096;52.302;4.634;2023-12-07T11:51:51;12.83;;;7.77;;
56653;SDS011;45096;52.302;4.634;2023-12-07T11:54:16;13.87;;;8.40;;
56653;SDS011;45096;52.302;4.634;2023-12-07T11:56:42;14.43;;;8.70;;
56653;SDS011;45096;52.302;4.634;2023-12-07T11:59:07;13.47;;;8.73;;
56653;SDS011;45096;52.302;4.634;2023-12-07T12:01:33;11.73;;;8.23;;
56653;SDS011;45096;52.302;4.634;2023-12-07T12:04:00;13.80;;;8.93;;
56653;SDS011;45096;52.302;4.634;2023-12-07T12:06:25;14.80;;;8.17;;
56653;SDS011;45096;52.302;4.634;2023-12-07T12:08:50;13.83;;;9.37;;
56653;SDS011;45096;52.302;4.634;2023-12-07T12:11:16;15.67;;;8.73;;
56653;SDS011;45096;52.302;4.634;2023-12-07T12:13:41;14.07;;;8.87;;
56653;SDS011;45096;52.302;4.634;2023-12-07T12:16:07;13.63;;;7.97;;
56653;SDS011;45096;52.302;4.634;2023-12-07T12:18:33;16.60;;;8.50;;
56653;SDS011;45096;52.302;4.634;2023-12-07T12:21:00;15.37;;;9.10;;
56653;SDS011;45096;52.302;4.634;2023-12-07T12:23:25;13.67;;;8.53;;
56653;SDS011;45096;52.302;4.634;2023-12-07T12:25:50;15.50;;;9.13;;
56653;SDS011;45096;52.302;4.634;2023-12-07T12:28:16;15.63;;;9.40;;
56653;SDS011;45096;52.302;4.634;2023-12-07T12:30:42;12.50;;;8.40;;
56653;SDS011;45096;52.302;4.634;2023-12-07T12:33:08;13.70;;;8.60;;
56653;SDS011;45096;52.302;4.634;2023-12-07T12:35:33;14.50;;;9.60;;
56653;SDS011;45096;52.302;4.634;2023-12-07T12:38:00;14.63;;;9.27;;
56653;SDS011;45096;52.302;4.634;2023-12-07T12:40:26;13.30;;;8.90;;
56653;SDS011;45096;52.302;4.634;2023-12-07T12:42:52;13.83;;;8.77;;
56653;SDS011;45096;52.302;4.634;2023-12-07T12:45:18;12.07;;;8.00;;
56653;SDS011;45096;52.302;4.634;2023-12-07T12:47:45;14.03;;;8.13;;
56653;SDS011;45096;52.302;4.634;2023-12-07T12:50:12;15.17;;;8.73;;
56653;SDS011;45096;52.302;4.634;2023-12-07T12:52:39;15.87;;;10.20;;
56653;SDS011;45096;52.302;4.634;2023-12-07T12:55:08;14.50;;;8.73;;
56653;SDS011;45096;52.302;4.634;2023-12-07T12:57:33;15.90;;;8.23;;
56653;SDS011;45096;52.302;4.634;2023-12-07T13:00:00;14.77;;;8.13;;
56653;SDS011;45096;52.302;4.634;2023-12-07T13:02:26;12.90;;;8.80;;
56653;SDS011;45096;52.302;4.634;2023-12-07T13:04:51;16.20;;;9.37;;
56653;SDS011;45096;52.302;4.634;2023-12-07T13:07:16;13.90;;;8.70;;
56653;SDS011;45096;52.302;4.634;2023-12-07T13:09:42;15.30;;;9.33;;
56653;SDS011;45096;52.302;4.634;2023-12-07T13:12:09;16.30;;;9.47;;
56653;SDS011;45096;52.302;4.634;2023-12-07T13:14:34;13.30;;;9.30;;
56653;SDS011;45096;52.302;4.634;2023-12-07T13:17:00;15.63;;;9.43;;
56653;SDS011;45096;52.302;4.634;2023-12-07T13:19:25;16.80;;;9.23;;
56653;SDS011;45096;52.302;4.634;2023-12-07T13:21:51;14.50;;;9.20;;
56653;SDS011;45096;52.302;4.634;2023-12-07T13:24:16;14.90;;;9.17;;
56653;SDS011;45096;52.302;4.634;2023-12-07T13:26:41;15.40;;;9.33;;
56653;SDS011;45096;52.302;4.634;2023-12-07T13:29:08;16.43;;;10.13;;
56653;SDS011;45096;52.302;4.634;2023-12-07T13:31:34;16.13;;;9.70;;
56653;SDS011;45096;52.302;4.634;2023-12-07T13:33:59;16.70;;;9.60;;
56653;SDS011;45096;52.302;4.634;2023-12-07T13:36:24;14.23;;;9.30;;
56653;SDS011;45096;52.302;4.634;2023-12-07T13:38:50;14.90;;;8.97;;
56653;SDS011;45096;52.302;4.634;2023-12-07T13:41:15;14.40;;;9.20;;
56653;SDS011;45096;52.302;4.634;2023-12-07T13:43:41;16.40;;;9.43;;
56653;SDS011;45096;52.302;4.634;2023-12-07T13:46:07;13.93;;;9.30;;
56653;SDS011;45096;52.302;4.634;2023-12-07T13:48:33;15.87;;;9.30;;
56653;SDS011;45096;52.302;4.634;2023-12-07T13:50:58;13.53;;;9.90;;
56653;SDS011;45096;52.302;4.634;2023-12-07T13:53:24;13.47;;;8.97;;
56653;SDS011;45096;52.302;4.634;2023-12-07T13:55:49;16.70;;;10.00;;
56653;SDS011;45096;52.302;4.634;2023-12-07T13:58:14;18.43;;;9.47;;
56653;SDS011;45096;52.302;4.634;2023-12-07T14:00:40;16.03;;;9.90;;
56653;SDS011;45096;52.302;4.634;2023-12-07T14:03:07;16.37;;;9.80;;
56653;SDS011;45096;52.302;4.634;2023-12-07T14:05:32;15.43;;;9.77;;
56653;SDS011;45096;52.302;4.634;2023-12-07T14:07:57;17.23;;;9.53;;
56653;SDS011;45096;52.302;4.634;2023-12-07T14:10:23;13.57;;;8.47;;
56653;SDS011;45096;52.302;4.634;2023-12-07T14:12:48;15.57;;;8.67;;
56653;SDS011;45096;52.302;4.634;2023-12-07T14:15:14;15.30;;;9.53;;
56653;SDS011;45096;52.302;4.634;2023-12-07T14:17:39;15.90;;;9.57;;
56653;SDS011;45096;52.302;4.634;2023-12-07T14:20:06;19.70;;;11.23;;
56653;SDS011;45096;52.302;4.634;2023-12-07T14:22:33;15.77;;;9.73;;
56653;SDS011;45096;52.302;4.634;2023-12-07T14:24:59;14.03;;;9.80;;
56653;SDS011;45096;52.302;4.634;2023-12-07T14:27:24;15.07;;;9.40;;
56653;SDS011;45096;52.302;4.634;2023-12-07T14:29:50;15.60;;;9.87;;
56653;SDS011;45096;52.302;4.634;2023-12-07T14:32:15;16.47;;;9.83;;